Time;durP1;ratioP1;P1;durP2;ratioP2;P2;SDS_P1;SDS_P2;PMS_P1;PMS_P2;Temp;Humidity;BMP_temperature;BMP_pressure;BME280_temperature;BME280_humidity;BME280_pressure;Samples;Min_cycle;Max_cycle;Signal;HPM_P1;HPM_P2
2023/02/18 00:01:00;;;;;;;14.93;14.63;;;12.20;1.00;;;;;;4995019;28;21038;-76
2023/02/18 00:03:31;;;;;;;14.83;14.50;;;12.20;1.00;;;;;;4995334;28;20543;-77
2023/02/18 00:05:59;;;;;;;14.90;14.60;;;12.20;99.90;;;;;;4996113;28;20469;-75
2023/02/18 00:08:27;;;;;;;15.40;15.00;;;12.20;99.90;;;;;;4989653;28;20469;-77
2023/02/18 00:10:55;;;;;;;15.40;15.00;;;12.20;99.90;;;;;;4993623;28;20453;-78
2023/02/18 00:13:23;;;;;;;15.20;14.90;;;12.20;99.90;;;;;;4988716;28;20447;-75
2023/02/18 00:15:51;;;;;;;15.40;15.00;;;12.10;99.90;;;;;;4989896;28;20480;-76
2023/02/18 00:18:19;;;;;;;14.93;14.53;;;12.10;1.00;;;;;;4989365;28;20454;-75
2023/02/18 00:20:48;;;;;;;15.47;15.07;;;12.10;99.90;;;;;;4991648;28;20470;-76
2023/02/18 00:23:16;;;;;;;14.30;14.00;;;12.10;99.90;;;;;;4992911;28;20437;-76
2023/02/18 00:25:44;;;;;;;14.70;14.30;;;12.10;1.00;;;;;;4990462;28;20476;-76
2023/02/18 00:28:13;;;;;;;14.20;13.90;;;12.10;99.90;;;;;;4991850;28;20980;-78
2023/02/18 00:30:41;;;;;;;14.40;14.10;;;12.10;99.90;;;;;;4995509;28;20466;-75
2023/02/18 00:33:09;;;;;;;15.10;14.70;;;12.10;99.90;;;;;;4991390;28;20465;-76
2023/02/18 00:35:37;;;;;;;14.40;14.10;;;12.20;99.90;;;;;;4987193;28;20481;-75
2023/02/18 00:38:06;;;;;;;14.50;14.20;;;12.20;99.90;;;;;;4988462;28;20575;-75
2023/02/18 00:40:37;;;;;;;15.23;14.63;;;12.20;99.90;;;;;;4991017;28;20508;-76
2023/02/18 00:43:06;;;;;;;14.20;13.90;;;12.20;99.90;;;;;;4993374;28;20466;-77
2023/02/18 00:45:34;;;;;;;14.63;14.33;;;12.20;99.90;;;;;;4991701;28;21312;-75
2023/02/18 00:48:02;;;;;;;14.80;14.50;;;12.20;99.90;;;;;;4993840;28;21049;-76
2023/02/18 00:50:30;;;;;;;14.20;13.90;;;12.20;99.90;;;;;;4993892;28;21141;-75
2023/02/18 00:52:58;;;;;;;14.30;13.90;;;12.20;99.90;;;;;;4991876;28;20489;-75
2023/02/18 00:55:28;;;;;;;14.50;14.20;;;12.20;99.90;;;;;;4993388;28;20567;-76
2023/02/18 00:57:56;;;;;;;14.37;13.87;;;12.20;99.90;;;;;;4996757;28;20470;-76
2023/02/18 01:00:25;;;;;;;14.40;14.00;;;12.20;99.90;;;;;;4999023;28;20464;-75
2023/02/18 01:02:53;;;;;;;14.63;14.13;;;12.30;99.90;;;;;;4997057;28;20481;-77
2023/02/18 01:05:22;;;;;;;14.53;14.00;;;12.30;99.90;;;;;;4999566;28;20473;-75
2023/02/18 01:07:50;;;;;;;14.50;14.10;;;12.30;99.90;;;;;;4998534;28;21165;-75
2023/02/18 01:10:18;;;;;;;14.20;13.90;;;12.30;99.90;;;;;;4996090;28;20453;-76
2023/02/18 01:12:47;;;;;;;14.10;13.80;;;12.40;99.90;;;;;;4993413;28;20578;-75
2023/02/18 01:15:17;;;;;;;13.87;13.57;;;12.40;99.90;;;;;;4998156;28;20817;-75
2023/02/18 01:17:45;;;;;;;13.80;13.50;;;12.30;99.90;;;;;;4997251;28;20958;-76
2023/02/18 01:20:15;;;;;;;13.97;13.60;;;12.30;99.90;;;;;;5000612;28;21528;-76
2023/02/18 01:22:43;;;;;;;14.00;13.70;;;12.30;99.90;;;;;;4997070;28;21255;-74
2023/02/18 01:25:12;;;;;;;14.40;14.00;;;12.30;99.90;;;;;;4998976;28;21027;-77
2023/02/18 01:27:40;;;;;;;14.00;13.70;;;12.20;99.90;;;;;;4997339;28;20495;-75
2023/02/18 01:30:16;;;;;;;14.40;14.00;;;12.30;99.90;;;;;;4994496;28;20461;-78
2023/02/18 01:32:44;;;;;;;14.70;14.30;;;12.30;99.90;;;;;;4994639;28;20494;-75
2023/02/18 01:35:13;;;;;;;13.77;13.47;;;12.30;99.90;;;;;;4999532;28;20481;-77
2023/02/18 01:37:42;;;;;;;14.20;13.80;;;12.30;99.90;;;;;;4997723;28;20446;-75
2023/02/18 01:40:12;;;;;;;14.00;13.70;;;12.20;99.90;;;;;;4994287;28;20997;-78
2023/02/18 01:42:40;;;;;;;14.00;13.70;;;12.30;99.90;;;;;;4994724;28;20450;-76
2023/02/18 01:45:51;;;;;;;13.60;13.30;;;12.30;99.90;;;;;;4995512;28;20500;-77
2023/02/18 01:48:24;;;;;;;14.20;13.80;;;12.30;99.90;;;;;;4995500;28;20461;-76
2023/02/18 01:50:56;;;;;;;13.90;13.50;;;12.30;99.90;;;;;;4996152;28;20454;-75
2023/02/18 01:53:31;;;;;;;13.93;13.63;;;12.30;99.90;;;;;;4993874;28;20465;-76
2023/02/18 01:56:01;;;;;;;14.03;13.53;;;12.30;97.00;;;;;;4993356;28;21405;-76
2023/02/18 01:58:29;;;;;;;13.80;13.50;;;12.30;77.40;;;;;;4992869;28;20474;-77
2023/02/18 02:00:59;;;;;;;14.00;13.70;;;12.30;78.20;;;;;;4986466;28;20884;-77
2023/02/18 02:03:27;;;;;;;14.00;13.70;;;12.30;77.60;;;;;;4995754;28;20563;-76
2023/02/18 02:05:55;;;;;;;14.10;13.73;;;12.30;54.80;;;;;;4993933;28;20834;-77
2023/02/18 02:08:23;;;;;;;14.40;14.00;;;12.30;55.40;;;;;;4995713;28;20555;-76
2023/02/18 02:11:07;;;;;;;14.10;13.70;;;12.30;37.20;;;;;;4996188;28;20458;-77
2023/02/18 02:13:52;;;;;;;14.30;13.90;;;12.40;27.80;;;;;;4996874;28;20539;-77
2023/02/18 02:16:29;;;;;;;13.70;13.40;;;12.30;16.50;;;;;;4995632;28;20532;-76
2023/02/18 02:19:07;;;;;;;13.80;13.50;;;12.30;20.40;;;;;;4993607;28;20464;-77
2023/02/18 02:22:03;;;;;;;13.53;13.23;;;12.30;7.10;;;;;;4995480;28;20490;-77
2023/02/18 02:25:03;;;;;;;13.70;13.37;;;12.30;4.20;;;;;;4992580;28;20477;-76
2023/02/18 02:27:54;;;;;;;13.80;13.40;;;12.20;22.50;;;;;;4995799;28;21073;-78
2023/02/18 02:31:16;;;;;;;13.57;13.27;;;12.20;20.60;;;;;;4994923;28;20452;-78
2023/02/18 02:34:20;;;;;;;13.40;13.10;;;12.20;20.90;;;;;;4960924;28;20589;-77
2023/02/18 02:36:55;;;;;;;13.57;13.27;;;12.20;8.30;;;;;;4988880;28;20531;-78
2023/02/18 02:39:29;;;;;;;13.50;13.20;;;12.20;18.00;;;;;;4988651;28;21693;-78
2023/02/18 02:42:04;;;;;;;13.57;13.17;;;12.20;14.20;;;;;;4991609;28;20446;-77
2023/02/18 02:44:39;;;;;;;13.80;13.50;;;12.20;26.90;;;;;;4993161;28;20815;-76
2023/02/18 02:47:14;;;;;;;14.03;13.57;;;12.20;26.00;;;;;;4993594;28;20462;-76
2023/02/18 02:49:48;;;;;;;14.23;13.83;;;12.20;32.10;;;;;;4993956;28;20445;-77
2023/02/18 02:52:23;;;;;;;13.47;13.07;;;12.20;22.80;;;;;;4993531;28;20457;-79
2023/02/18 02:54:52;;;;;;;14.10;13.70;;;12.20;24.40;;;;;;4993923;28;20523;-76
2023/02/18 02:57:44;;;;;;;13.20;12.90;;;12.30;29.40;;;;;;4993849;28;20465;-78
2023/02/18 03:00:14;;;;;;;14.20;13.90;;;12.20;34.60;;;;;;4993578;28;20450;-75
2023/02/18 03:02:57;;;;;;;13.50;13.20;;;12.20;28.10;;;;;;4995474;28;20447;-77
2023/02/18 03:05:38;;;;;;;13.53;13.23;;;12.20;23.90;;;;;;4996247;28;21040;-76
2023/02/18 03:08:27;;;;;;;13.80;13.50;;;12.30;17.90;;;;;;4995990;28;20469;-76
2023/02/18 03:11:03;;;;;;;13.63;13.33;;;12.30;13.50;;;;;;4999029;28;20457;-77
2023/02/18 03:13:45;;;;;;;13.93;13.63;;;12.20;33.30;;;;;;4994868;28;20577;-77
2023/02/18 03:16:22;;;;;;;13.60;13.30;;;12.20;18.00;;;;;;4997956;28;20659;-76
2023/02/18 03:18:59;;;;;;;13.57;13.27;;;12.20;23.00;;;;;;4996283;28;20458;-75
2023/02/18 03:21:30;;;;;;;13.43;13.13;;;12.20;19.20;;;;;;4993530;28;20449;-76
2023/02/18 03:24:05;;;;;;;13.60;13.30;;;12.20;17.50;;;;;;4992402;28;20442;-76
2023/02/18 03:26:37;;;;;;;13.57;13.17;;;12.20;19.00;;;;;;4994600;28;20449;-75
2023/02/18 03:29:08;;;;;;;14.00;13.63;;;12.10;30.00;;;;;;4996370;28;20468;-77
2023/02/18 03:31:38;;;;;;;13.37;13.07;;;12.10;35.40;;;;;;5015416;28;20465;-77
2023/02/18 03:34:11;;;;;;;13.47;13.17;;;12.10;24.60;;;;;;4999335;28;20476;-77
2023/02/18 03:36:41;;;;;;;13.77;13.47;;;12.20;35.00;;;;;;4992969;28;20458;-75
2023/02/18 03:39:14;;;;;;;14.40;14.00;;;12.10;19.20;;;;;;4995672;28;20476;-78
2023/02/18 03:41:43;;;;;;;14.00;13.70;;;12.20;17.20;;;;;;4997970;28;21175;-76
2023/02/18 03:44:12;;;;;;;13.60;13.30;;;12.20;19.30;;;;;;4990520;28;20464;-76
2023/02/18 03:46:43;;;;;;;13.60;13.30;;;12.10;25.70;;;;;;4994996;28;20513;-76
2023/02/18 03:49:12;;;;;;;13.60;13.30;;;12.10;15.10;;;;;;4991910;28;20533;-75
2023/02/18 03:51:41;;;;;;;13.63;13.30;;;12.10;22.40;;;;;;4989175;28;20453;-78
2023/02/18 03:54:13;;;;;;;13.60;13.20;;;12.20;9.20;;;;;;4995920;28;20475;-77
2023/02/18 03:56:42;;;;;;;13.40;13.10;;;12.00;18.80;;;;;;4992212;28;20839;-77
2023/02/18 03:59:11;;;;;;;13.43;13.13;;;12.10;20.60;;;;;;4991003;28;20469;-78
2023/02/18 04:01:39;;;;;;;13.60;13.30;;;12.10;9.50;;;;;;4991110;28;20445;-77
2023/02/18 04:04:07;;;;;;;13.50;13.20;;;12.10;1.30;;;;;;4993778;28;20717;-77
2023/02/18 04:06:35;;;;;;;13.90;13.60;;;12.10;2.60;;;;;;4996782;28;20506;-77
2023/02/18 04:09:07;;;;;;;13.50;13.20;;;12.10;5.20;;;;;;4996749;28;20540;-76
2023/02/18 04:11:39;;;;;;;13.70;13.30;;;12.00;1.00;;;;;;4988373;28;20568;-75
2023/02/18 04:14:08;;;;;;;13.17;12.87;;;12.00;1.80;;;;;;4994585;28;20556;-75
2023/02/18 04:16:36;;;;;;;13.60;13.30;;;12.00;1.00;;;;;;4995962;28;20539;-76
2023/02/18 04:19:04;;;;;;;13.40;13.10;;;12.00;1.00;;;;;;4993656;28;20457;-76
2023/02/18 04:21:32;;;;;;;13.40;13.10;;;12.00;1.00;;;;;;4989548;28;20462;-77
2023/02/18 04:24:01;;;;;;;14.30;13.90;;;12.00;1.00;;;;;;4994413;28;20454;-76
2023/02/18 04:26:30;;;;;;;14.47;14.07;;;12.00;1.00;;;;;;4994712;28;20458;-76
2023/02/18 04:28:59;;;;;;;13.80;13.50;;;12.00;1.00;;;;;;4994734;28;21059;-77
2023/02/18 04:31:27;;;;;;;14.20;13.80;;;12.00;1.00;;;;;;4993295;28;20470;-76
2023/02/18 04:33:56;;;;;;;13.40;13.10;;;12.00;1.00;;;;;;4994668;28;20840;-76
2023/02/18 04:36:24;;;;;;;13.50;13.20;;;11.90;1.00;;;;;;4993279;28;21454;-76
2023/02/18 04:38:52;;;;;;;13.80;13.40;;;11.90;1.00;;;;;;4996777;28;20504;-75
2023/02/18 04:41:20;;;;;;;13.67;13.37;;;11.90;1.00;;;;;;4995701;28;21406;-78
2023/02/18 04:43:48;;;;;;;13.53;13.23;;;11.90;2.20;;;;;;4995934;28;20970;-76
2023/02/18 04:46:18;;;;;;;13.60;13.30;;;11.80;1.00;;;;;;4994594;28;20568;-78
2023/02/18 04:48:46;;;;;;;13.40;13.00;;;11.80;1.00;;;;;;4993302;28;20523;-78
2023/02/18 04:51:14;;;;;;;13.80;13.40;;;11.90;1.00;;;;;;5001056;28;20474;-77
2023/02/18 04:53:42;;;;;;;13.17;12.87;;;11.90;1.00;;;;;;4996510;28;20508;-77
2023/02/18 04:56:10;;;;;;;13.10;12.80;;;11.90;1.00;;;;;;4994355;28;20474;-76
2023/02/18 04:58:38;;;;;;;13.63;13.27;;;11.90;1.00;;;;;;4997925;28;20543;-77
2023/02/18 05:01:06;;;;;;;13.57;13.27;;;11.90;1.00;;;;;;4995164;28;20480;-77
2023/02/18 05:03:36;;;;;;;13.20;12.90;;;12.00;1.00;;;;;;5000591;28;20454;-77
2023/02/18 05:06:05;;;;;;;13.10;12.80;;;11.90;1.00;;;;;;5001037;28;20473;-75
2023/02/18 05:08:33;;;;;;;13.57;13.27;;;11.80;1.00;;;;;;4999314;28;20461;-76
2023/02/18 05:11:06;;;;;;;13.50;13.20;;;11.80;1.00;;;;;;4999995;28;20458;-77
2023/02/18 05:13:34;;;;;;;13.20;12.90;;;11.80;2.30;;;;;;4999152;28;20487;-76
2023/02/18 05:16:03;;;;;;;13.67;13.33;;;11.80;12.90;;;;;;4999250;28;20536;-76
2023/02/18 05:18:31;;;;;;;14.17;13.83;;;11.80;24.10;;;;;;4995930;28;20449;-76
2023/02/18 05:21:00;;;;;;;13.67;13.37;;;11.70;36.00;;;;;;5002442;28;20442;-76
2023/02/18 05:23:28;;;;;;;13.90;13.60;;;11.80;54.50;;;;;;4995131;28;20454;-77
2023/02/18 05:25:56;;;;;;;14.07;13.73;;;11.80;56.60;;;;;;4999385;28;20481;-76
2023/02/18 05:28:25;;;;;;;14.10;13.80;;;11.70;92.10;;;;;;5000903;28;20489;-76
2023/02/18 05:30:53;;;;;;;13.83;13.53;;;11.80;99.90;;;;;;4999002;28;20551;-76
2023/02/18 05:33:22;;;;;;;14.00;13.60;;;11.80;99.90;;;;;;5000944;28;20500;-76
2023/02/18 05:35:50;;;;;;;14.40;13.93;;;11.80;99.90;;;;;;4993987;28;20473;-77
2023/02/18 05:38:19;;;;;;;14.60;14.20;;;11.80;99.90;;;;;;4997767;28;21011;-76
2023/02/18 05:40:48;;;;;;;14.60;14.23;;;11.80;99.90;;;;;;4997556;28;20520;-77
2023/02/18 05:43:16;;;;;;;14.70;14.30;;;11.80;99.90;;;;;;4996534;28;20445;-76
2023/02/18 05:45:44;;;;;;;14.50;14.10;;;11.80;99.90;;;;;;4999882;28;20570;-76
2023/02/18 05:48:12;;;;;;;14.40;14.00;;;11.80;99.90;;;;;;5000262;28;20462;-76
2023/02/18 05:50:41;;;;;;;14.73;14.33;;;11.70;99.90;;;;;;5000053;28;20454;-76
2023/02/18 05:53:09;;;;;;;14.10;13.80;;;11.80;99.90;;;;;;5000360;28;20442;-76
2023/02/18 05:55:38;;;;;;;14.03;13.73;;;11.70;99.90;;;;;;4998397;28;20501;-76
2023/02/18 05:58:06;;;;;;;14.03;13.73;;;11.60;99.90;;;;;;4996358;28;20536;-77
2023/02/18 06:00:34;;;;;;;13.73;13.43;;;11.70;1.00;;;;;;4997746;28;20817;-77
2023/02/18 06:03:02;;;;;;;14.60;14.20;;;11.60;1.00;;;;;;4999630;28;21282;-76
2023/02/18 06:05:30;;;;;;;14.80;14.40;;;11.60;1.00;;;;;;4998814;28;20478;-76
2023/02/18 06:07:59;;;;;;;13.97;13.60;;;11.60;1.00;;;;;;4997455;28;20465;-78
2023/02/18 06:10:27;;;;;;;14.40;13.90;;;11.60;1.00;;;;;;4999722;28;20457;-76
2023/02/18 06:12:56;;;;;;;14.10;13.80;;;11.70;1.00;;;;;;4995722;28;20540;-77
2023/02/18 06:15:24;;;;;;;14.00;13.60;;;11.70;1.00;;;;;;4995452;28;20496;-77
2023/02/18 06:17:52;;;;;;;14.13;13.83;;;11.60;1.00;;;;;;4995437;28;20490;-77
2023/02/18 06:20:20;;;;;;;14.47;13.93;;;11.50;99.90;;;;;;4998146;28;20993;-77
2023/02/18 06:22:49;;;;;;;14.50;14.10;;;11.50;99.90;;;;;;4996001;28;20485;-77
2023/02/18 06:25:17;;;;;;;14.60;14.20;;;11.50;99.90;;;;;;4997463;28;20491;-77
2023/02/18 06:27:45;;;;;;;15.00;14.60;;;11.50;99.90;;;;;;4998401;28;20509;-77
2023/02/18 06:30:15;;;;;;;15.17;14.77;;;11.50;99.90;;;;;;4999022;28;20450;-77
2023/02/18 06:32:43;;;;;;;15.13;14.73;;;11.50;99.90;;;;;;4997832;28;20457;-77
2023/02/18 06:35:11;;;;;;;14.97;14.57;;;11.50;99.90;;;;;;4997533;28;20568;-77
2023/02/18 06:37:39;;;;;;;15.00;14.60;;;11.50;99.90;;;;;;4999473;28;20450;-78
2023/02/18 06:40:09;;;;;;;15.57;15.17;;;11.50;1.00;;;;;;4998254;28;20545;-77
2023/02/18 06:42:37;;;;;;;15.50;15.10;;;11.50;99.90;;;;;;4996154;28;20543;-76
2023/02/18 06:45:06;;;;;;;15.10;14.70;;;11.50;99.90;;;;;;4998526;28;20482;-76
2023/02/18 06:47:36;;;;;;;15.40;15.00;;;11.50;99.90;;;;;;4999117;28;20454;-77
2023/02/18 06:50:05;;;;;;;15.30;14.80;;;11.50;99.90;;;;;;4998677;28;20450;-78
2023/02/18 06:52:33;;;;;;;15.07;14.67;;;11.50;99.90;;;;;;4994346;28;20453;-77
2023/02/18 06:55:01;;;;;;;15.67;15.17;;;11.60;99.90;;;;;;4996251;28;20499;-77
2023/02/18 06:57:29;;;;;;;16.00;15.50;;;11.60;97.70;;;;;;4999956;28;20960;-77
2023/02/18 06:59:57;;;;;;;15.50;15.00;;;11.60;99.90;;;;;;5000419;28;20461;-76
2023/02/18 07:02:25;;;;;;;15.70;15.20;;;11.70;99.90;;;;;;4998327;28;20485;-76
2023/02/18 07:04:55;;;;;;;15.40;15.00;;;11.70;21.30;;;;;;4993056;28;21004;-76
2023/02/18 07:07:23;;;;;;;15.80;15.40;;;11.60;14.10;;;;;;4992594;28;20521;-77
2023/02/18 07:09:51;;;;;;;15.20;14.80;;;11.70;1.00;;;;;;4997217;28;20438;-77
2023/02/18 07:12:19;;;;;;;16.60;16.00;;;11.80;1.00;;;;;;4995616;28;20564;-77
2023/02/18 07:14:47;;;;;;;15.40;15.00;;;11.70;1.00;;;;;;4998923;28;20566;-77
2023/02/18 07:17:15;;;;;;;15.63;15.23;;;11.80;1.00;;;;;;4995681;28;20446;-77
2023/02/18 07:19:43;;;;;;;15.90;15.40;;;11.80;1.00;;;;;;4997406;28;20858;-78
2023/02/18 07:22:12;;;;;;;16.23;15.73;;;11.80;1.00;;;;;;4999044;28;20482;-76
2023/02/18 07:24:40;;;;;;;15.83;15.40;;;11.80;99.90;;;;;;4996800;28;20730;-75
2023/02/18 07:27:09;;;;;;;16.20;15.60;;;11.80;99.90;;;;;;5001798;28;20451;-76
2023/02/18 07:29:37;;;;;;;15.37;14.97;;;11.90;99.90;;;;;;4998753;28;20457;-77
2023/02/18 07:32:05;;;;;;;15.10;14.70;;;11.90;99.90;;;;;;4997114;28;20507;-76
2023/02/18 07:34:34;;;;;;;16.40;15.90;;;11.90;99.90;;;;;;4992276;28;20516;-76
2023/02/18 07:37:03;;;;;;;15.83;15.13;;;11.90;99.90;;;;;;4996392;28;20462;-77
2023/02/18 07:39:33;;;;;;;15.80;15.30;;;12.00;99.90;;;;;;4997634;28;20858;-76
2023/02/18 07:42:02;;;;;;;15.80;15.30;;;12.00;99.90;;;;;;4995685;28;20490;-76
2023/02/18 07:44:30;;;;;;;15.33;14.83;;;12.00;99.90;;;;;;4992844;28;20553;-76
2023/02/18 07:46:58;;;;;;;14.80;14.50;;;12.10;99.90;;;;;;4999133;28;20929;-76
2023/02/18 07:49:26;;;;;;;15.80;15.30;;;12.10;99.90;;;;;;4993859;28;20450;-78
2023/02/18 07:51:55;;;;;;;15.13;14.70;;;12.10;99.90;;;;;;4994589;28;20458;-76
2023/02/18 07:54:23;;;;;;;15.57;15.17;;;12.10;99.90;;;;;;4996651;28;21070;-76
2023/02/18 07:56:53;;;;;;;14.87;14.47;;;12.10;99.90;;;;;;4992910;28;20475;-76
2023/02/18 07:59:21;;;;;;;15.33;14.83;;;12.10;99.90;;;;;;4994664;28;20971;-77
2023/02/18 08:01:49;;;;;;;14.60;14.20;;;12.20;94.00;;;;;;4996466;28;21227;-76
2023/02/18 08:04:18;;;;;;;15.03;14.60;;;12.10;83.80;;;;;;4999678;28;20488;-76
2023/02/18 08:06:49;;;;;;;15.03;14.63;;;12.20;84.50;;;;;;4999382;28;20938;-76
2023/02/18 08:09:17;;;;;;;15.30;14.80;;;12.20;47.10;;;;;;5003916;28;20438;-78
2023/02/18 08:11:45;;;;;;;15.03;14.63;;;12.30;53.70;;;;;;4998148;28;20517;-77
2023/02/18 08:14:15;;;;;;;15.33;14.93;;;12.30;31.00;;;;;;4999908;28;20459;-76
2023/02/18 08:16:43;;;;;;;15.27;14.87;;;12.30;28.70;;;;;;5007468;28;20481;-76
2023/02/18 08:19:11;;;;;;;15.10;14.70;;;12.20;14.00;;;;;;4999980;28;20533;-74
2023/02/18 08:21:39;;;;;;;15.40;15.00;;;12.30;25.60;;;;;;5004102;28;20445;-76
2023/02/18 08:24:08;;;;;;;14.83;14.43;;;12.20;24.20;;;;;;5000979;28;20492;-75
2023/02/18 08:26:35;;;;;;;14.70;14.20;;;12.30;8.10;;;;;;4995556;28;20474;-75
2023/02/18 08:29:04;;;;;;;15.03;14.37;;;12.30;12.00;;;;;;5002154;28;20474;-76
2023/02/18 08:31:33;;;;;;;14.00;13.70;;;12.20;15.80;;;;;;5000652;28;20523;-78
2023/02/18 08:34:03;;;;;;;14.70;14.30;;;12.30;6.10;;;;;;4998684;28;20537;-75
2023/02/18 08:36:31;;;;;;;15.07;14.40;;;12.40;1.00;;;;;;4999690;28;20533;-77
2023/02/18 08:39:00;;;;;;;14.30;13.93;;;12.40;1.00;;;;;;5001092;28;20569;-76
2023/02/18 08:41:28;;;;;;;14.77;14.40;;;12.40;1.00;;;;;;4996581;28;20450;-76
2023/02/18 08:43:56;;;;;;;14.80;14.50;;;12.40;1.00;;;;;;5002246;28;20539;-75
2023/02/18 08:46:24;;;;;;;14.60;14.20;;;12.40;1.00;;;;;;4999382;28;20465;-76
2023/02/18 08:49:05;;;;;;;14.83;14.43;;;12.40;1.00;;;;;;4999070;28;20454;-75
2023/02/18 08:51:33;;;;;;;14.47;14.07;;;12.50;1.00;;;;;;4998793;28;20458;-76
2023/02/18 08:54:01;;;;;;;14.50;14.20;;;12.50;1.00;;;;;;4998283;28;20474;-77
2023/02/18 08:56:30;;;;;;;14.50;14.10;;;12.60;1.00;;;;;;5001166;28;20492;-76
2023/02/18 08:58:59;;;;;;;15.37;14.90;;;12.60;1.00;;;;;;5001116;28;20480;-77
2023/02/18 09:01:27;;;;;;;14.50;14.10;;;12.80;1.00;;;;;;4999079;28;21218;-77
2023/02/18 09:03:55;;;;;;;14.20;13.80;;;12.90;1.00;;;;;;4994602;28;20465;-76
2023/02/18 09:06:25;;;;;;;14.27;13.87;;;12.70;1.00;;;;;;4999330;28;20495;-77
2023/02/18 09:08:53;;;;;;;14.87;14.47;;;12.80;1.00;;;;;;4999244;28;20492;-77
2023/02/18 09:11:21;;;;;;;14.67;14.30;;;12.80;1.00;;;;;;5000931;28;20545;-76
2023/02/18 09:13:49;;;;;;;14.73;14.33;;;12.80;1.00;;;;;;4997937;28;20976;-77
2023/02/18 09:16:18;;;;;;;14.40;14.10;;;12.70;1.00;;;;;;4999128;28;20622;-76
2023/02/18 09:18:48;;;;;;;14.80;14.40;;;12.70;1.00;;;;;;4996925;28;20483;-77
2023/02/18 09:21:19;;;;;;;14.93;14.53;;;12.90;1.00;;;;;;4997480;28;20582;-76
2023/02/18 09:23:49;;;;;;;14.70;14.40;;;13.10;1.00;;;;;;4995049;28;20546;-76
2023/02/18 09:26:20;;;;;;;15.20;14.80;;;13.20;1.00;;;;;;4999792;28;20470;-77
2023/02/18 09:28:49;;;;;;;15.00;14.60;;;13.70;1.00;;;;;;4998389;28;20446;-77
2023/02/18 09:31:19;;;;;;;15.40;14.90;;;14.20;1.00;;;;;;4997532;28;20457;-77
2023/02/18 09:33:49;;;;;;;14.70;14.30;;;14.30;1.00;;;;;;4999685;28;20482;-76
2023/02/18 09:36:19;;;;;;;14.90;14.50;;;14.20;1.00;;;;;;4998546;28;20477;-77
2023/02/18 09:38:49;;;;;;;14.63;14.20;;;14.00;1.00;;;;;;4993711;28;20459;-76
2023/02/18 09:41:28;;;;;;;15.00;14.60;;;14.30;1.00;;;;;;4998407;28;20986;-77
2023/02/18 09:43:59;;;;;;;14.70;14.30;;;14.40;1.00;;;;;;4997823;28;20473;-77
2023/02/18 09:46:30;;;;;;;15.10;14.60;;;14.50;99.90;;;;;;4999876;28;20439;-76
2023/02/18 09:49:02;;;;;;;15.50;15.00;;;14.50;99.90;;;;;;5000608;28;20802;-77
2023/02/18 09:51:30;;;;;;;15.23;14.83;;;14.40;99.90;;;;;;4999263;28;20536;-79
2023/02/18 09:53:59;;;;;;;15.10;14.70;;;14.30;99.90;;;;;;4997380;28;20464;-78
2023/02/18 09:56:30;;;;;;;14.87;14.40;;;14.30;99.90;;;;;;4998444;28;21001;-77
2023/02/18 09:59:03;;;;;;;14.30;14.00;;;14.20;99.90;;;;;;4999720;28;20518;-77
2023/02/18 10:01:35;;;;;;;14.50;14.00;;;14.00;99.90;;;;;;4999394;28;21154;-76
2023/02/18 10:04:10;;;;;;;14.07;13.67;;;14.00;99.90;;;;;;5000258;28;20483;-77
2023/02/18 10:06:38;;;;;;;14.10;13.80;;;13.90;99.90;;;;;;4998227;28;20460;-77
2023/02/18 10:09:18;;;;;;;14.70;14.20;;;13.80;99.90;;;;;;4996286;28;20456;-76
2023/02/18 10:11:50;;;;;;;14.00;13.70;;;13.60;99.90;;;;;;4999535;28;20461;-75
2023/02/18 10:14:19;;;;;;;15.10;14.40;;;13.50;99.90;;;;;;4999924;28;20447;-76
2023/02/18 10:16:49;;;;;;;14.00;13.70;;;13.60;99.90;;;;;;4996754;28;20569;-75
2023/02/18 10:19:32;;;;;;;14.00;13.60;;;13.70;99.90;;;;;;4997826;28;20838;-76
2023/02/18 10:22:02;;;;;;;13.63;13.33;;;13.60;99.90;;;;;;4997151;28;20455;-76
2023/02/18 10:24:34;;;;;;;13.87;13.57;;;13.60;99.90;;;;;;5000859;28;20937;-76
2023/02/18 10:27:06;;;;;;;14.57;14.17;;;13.70;99.90;;;;;;5000329;28;20456;-76
2023/02/18 10:29:35;;;;;;;13.67;13.37;;;13.70;99.90;;;;;;4995819;28;20502;-76
2023/02/18 10:32:12;;;;;;;13.53;13.13;;;13.60;99.90;;;;;;4998953;28;20453;-77
2023/02/18 10:34:42;;;;;;;13.70;13.40;;;13.60;99.90;;;;;;4997574;28;20524;-77
2023/02/18 10:37:27;;;;;;;13.60;13.30;;;13.50;99.90;;;;;;4994902;28;20480;-76
2023/02/18 10:40:09;;;;;;;13.40;13.00;;;13.50;99.90;;;;;;4997529;28;20446;-76
2023/02/18 10:42:46;;;;;;;13.10;12.70;;;13.40;99.90;;;;;;4999498;28;20970;-75
2023/02/18 10:45:25;;;;;;;12.70;12.50;;;13.40;99.90;;;;;;4997473;28;20480;-76
2023/02/18 10:48:05;;;;;;;13.67;13.37;;;13.40;99.90;;;;;;5000397;28;20508;-75
2023/02/18 10:50:37;;;;;;;13.43;13.13;;;13.40;99.90;;;;;;4998993;28;21259;-76
2023/02/18 10:53:13;;;;;;;13.60;13.20;;;13.50;99.90;;;;;;5001390;28;20542;-77
2023/02/18 10:55:44;;;;;;;13.40;13.10;;;13.60;99.90;;;;;;5005779;28;20884;-77
2023/02/18 10:58:31;;;;;;;13.37;13.07;;;13.60;99.90;;;;;;5000065;28;20850;-75
2023/02/18 11:01:03;;;;;;;13.30;13.00;;;13.50;99.90;;;;;;4997568;28;20533;-76
2023/02/18 11:03:43;;;;;;;13.27;12.97;;;13.50;99.90;;;;;;4997632;28;21492;-77
2023/02/18 11:06:25;;;;;;;13.80;13.40;;;13.50;99.90;;;;;;4998284;28;20482;-76
2023/02/18 11:08:55;;;;;;;13.10;12.90;;;13.50;99.90;;;;;;4995788;28;20889;-77
2023/02/18 11:11:30;;;;;;;12.80;12.50;;;13.60;99.90;;;;;;4998064;28;20543;-76
2023/02/18 11:14:01;;;;;;;13.23;12.90;;;13.50;99.90;;;;;;5004282;28;20466;-76
2023/02/18 11:16:37;;;;;;;13.30;13.00;;;13.50;99.90;;;;;;4997413;28;21082;-77
2023/02/18 11:19:26;;;;;;;13.40;13.10;;;13.60;99.90;;;;;;4997510;28;20578;-76
2023/02/18 11:22:08;;;;;;;13.27;12.97;;;13.60;99.90;;;;;;4995780;28;20439;-77
2023/02/18 11:24:39;;;;;;;13.67;13.17;;;13.70;99.90;;;;;;4997813;28;20478;-77
2023/02/18 11:27:10;;;;;;;12.70;12.40;;;13.70;99.90;;;;;;4997756;28;20468;-77
2023/02/18 11:29:41;;;;;;;12.70;12.40;;;13.60;99.90;;;;;;4998357;28;20469;-77
2023/02/18 11:32:12;;;;;;;13.53;13.23;;;13.60;99.90;;;;;;4995787;28;21194;-76
2023/02/18 11:34:44;;;;;;;13.23;12.67;;;13.70;99.90;;;;;;4995823;28;21420;-76
2023/02/18 11:37:17;;;;;;;13.50;13.17;;;13.60;99.90;;;;;;4996333;28;20465;-76
2023/02/18 11:39:48;;;;;;;13.20;12.90;;;13.80;99.90;;;;;;4996147;28;21173;-76
2023/02/18 11:42:20;;;;;;;13.43;13.13;;;13.70;99.90;;;;;;4996198;28;20820;-78
2023/02/18 11:44:54;;;;;;;13.53;13.20;;;13.70;99.90;;;;;;4997273;28;20486;-78
2023/02/18 11:47:27;;;;;;;14.00;13.60;;;13.70;99.90;;;;;;4996932;28;20499;-76
2023/02/18 11:50:15;;;;;;;13.00;12.70;;;13.80;99.90;;;;;;4995664;28;20517;-76
2023/02/18 11:52:46;;;;;;;13.20;12.90;;;13.80;99.90;;;;;;4993902;28;20457;-74
2023/02/18 11:55:19;;;;;;;12.80;12.50;;;13.80;99.90;;;;;;4998491;28;20561;-76
2023/02/18 11:57:54;;;;;;;13.43;13.13;;;13.80;99.90;;;;;;4995853;28;20575;-76
2023/02/18 12:00:24;;;;;;;13.20;12.80;;;13.80;99.90;;;;;;4998530;28;20460;-76
2023/02/18 12:02:56;;;;;;;13.40;13.10;;;13.70;99.90;;;;;;4998581;28;20472;-77
2023/02/18 12:05:27;;;;;;;13.13;12.63;;;13.80;99.90;;;;;;4996826;28;20508;-76
2023/02/18 12:08:01;;;;;;;14.27;13.77;;;13.80;99.90;;;;;;4996968;28;20461;-76
2023/02/18 12:10:34;;;;;;;13.17;12.80;;;13.90;99.90;;;;;;4994137;28;20476;-77
2023/02/18 12:13:08;;;;;;;13.20;12.90;;;13.90;99.90;;;;;;4996689;28;20468;-76
2023/02/18 12:15:48;;;;;;;13.70;13.40;;;13.90;99.90;;;;;;4997896;28;20488;-75
2023/02/18 12:18:40;;;;;;;14.37;13.67;;;13.80;99.90;;;;;;4997999;28;20470;-78
2023/02/18 12:21:20;;;;;;;13.57;13.27;;;13.90;99.90;;;;;;4993439;28;20899;-75
2023/02/18 12:24:03;;;;;;;12.80;12.50;;;13.80;99.90;;;;;;4993514;28;20461;-76
2023/02/18 12:26:41;;;;;;;13.67;13.27;;;13.90;99.90;;;;;;4993926;28;20460;-76
2023/02/18 12:29:32;;;;;;;13.93;13.37;;;13.90;99.90;;;;;;4999848;28;20460;-77
2023/02/18 12:32:23;;;;;;;13.60;13.20;;;13.90;99.90;;;;;;4998519;28;20467;-76
2023/02/18 12:35:07;;;;;;;14.50;13.90;;;13.90;99.90;;;;;;4997796;28;20488;-77
2023/02/18 12:37:55;;;;;;;13.43;13.10;;;13.90;99.90;;;;;;4999114;28;20441;-77
2023/02/18 12:40:43;;;;;;;13.03;12.53;;;13.90;99.90;;;;;;4998835;28;21323;-75
2023/02/18 12:43:20;;;;;;;13.30;12.80;;;14.00;99.90;;;;;;4996808;28;20456;-76
2023/02/18 12:46:14;;;;;;;12.67;12.37;;;13.90;99.90;;;;;;4996449;28;20491;-76
2023/02/18 12:48:59;;;;;;;12.60;12.30;;;14.00;99.90;;;;;;4998459;28;20460;-77
2023/02/18 12:51:35;;;;;;;13.40;13.10;;;14.00;99.90;;;;;;4996771;28;20486;-76
2023/02/18 12:54:36;;;;;;;13.70;13.20;;;13.90;99.90;;;;;;4998694;28;20551;-76